Time;durP1;ratioP1;P1;durP2;ratioP2;P2;SDS_P1;SDS_P2;PMS_P1;PMS_P2;Temp;Humidity;BMP_temperature;BMP_pressure;BME280_temperature;BME280_humidity;BME280_pressure;Samples;Min_cycle;Max_cycle;Signal;HPM_P1;HPM_P2
2022/10/26 00:02:14;;;;;;;7.55;5.32;;;;;;;13.02;72.32;101291.06;5053237;28;20029;-67
2022/10/26 00:04:40;;;;;;;9.48;5.20;;;;;;;13.04;72.29;101288.84;5053496;28;20063;-67
2022/10/26 00:07:05;;;;;;;7.82;5.20;;;;;;;13.03;72.65;101282.41;5051346;28;20029;-67
2022/10/26 00:09:30;;;;;;;8.65;5.18;;;;;;;13.06;72.55;101283.84;5067891;28;20029;-67
2022/10/26 00:11:56;;;;;;;7.53;5.20;;;;;;;13.08;72.03;101278.84;5056921;28;20040;-67
2022/10/26 00:14:21;;;;;;;9.35;4.95;;;;;;;13.08;72.38;101272.44;5051992;28;20465;-67
2022/10/26 00:16:46;;;;;;;13.50;5.88;;;;;;;13.08;72.67;101266.88;5052895;28;20036;-67
2022/10/26 00:19:12;;;;;;;8.55;5.18;;;;;;;13.07;72.50;101268.81;5053231;28;20025;-67
2022/10/26 00:21:37;;;;;;;8.00;5.63;;;;;;;13.07;72.24;101267.97;5052808;28;20025;-67
2022/10/26 00:24:02;;;;;;;9.50;5.43;;;;;;;13.11;72.13;101258.81;5050471;28;20531;-67
2022/10/26 00:26:28;;;;;;;7.75;5.38;;;;;;;13.07;72.60;101273.53;5067540;28;20089;-67
2022/10/26 00:28:57;;;;;;;9.82;5.25;;;;;;;13.08;72.50;101264.91;5071989;28;20024;-67
2022/10/26 00:31:23;;;;;;;9.63;5.03;;;;;;;13.08;72.68;101250.13;5055218;28;20171;-68
2022/10/26 00:33:53;;;;;;;10.90;4.95;;;;;;;13.09;72.46;101252.69;5032360;28;20049;-67
2022/10/26 00:36:19;;;;;;;8.45;5.53;;;;;;;13.11;72.50;101241.28;5033097;28;20028;-67
2022/10/26 00:38:49;;;;;;;8.52;5.10;;;;;;;13.14;72.17;101240.75;5032864;28;20472;-67
2022/10/26 00:41:16;;;;;;;9.23;4.88;;;;;;;13.14;72.53;101254.69;5048258;28;20486;-67
2022/10/26 00:43:41;;;;;;;8.32;5.20;;;;;;;13.12;72.31;101265.25;5032559;28;20495;-67
2022/10/26 00:46:11;;;;;;;8.95;4.97;;;;;;;13.09;72.44;101263.00;5033190;28;20030;-67
2022/10/26 00:48:46;;;;;;;11.23;5.35;;;;;;;13.11;72.78;101267.19;5031781;28;20018;-67
2022/10/26 00:51:26;;;;;;;8.85;4.95;;;;;;;13.11;73.00;101267.19;5040142;28;20058;-67
2022/10/26 00:53:53;;;;;;;9.65;5.20;;;;;;;13.13;72.22;101255.81;5032602;28;20037;-67
2022/10/26 00:56:18;;;;;;;9.85;5.07;;;;;;;13.09;73.11;101255.47;5066799;28;20131;-67
2022/10/26 00:58:44;;;;;;;6.65;5.20;;;;;;;13.10;73.18;101256.31;5063013;28;20520;-67
2022/10/26 01:01:12;;;;;;;6.80;4.88;;;;;;;13.10;72.63;101247.94;5032325;28;20389;-67
2022/10/26 01:03:40;;;;;;;11.52;5.35;;;;;;;13.12;72.69;101245.72;5031499;28;20021;-67
2022/10/26 01:06:07;;;;;;;10.23;5.05;;;;;;;13.16;72.95;101246.88;5032615;28;20079;-67
2022/10/26 01:08:33;;;;;;;10.68;5.03;;;;;;;13.14;72.93;101237.97;5043444;28;20021;-67
2022/10/26 01:10:59;;;;;;;9.93;4.63;;;;;;;13.14;72.78;101238.81;5048732;28;20037;-68
2022/10/26 01:13:28;;;;;;;7.78;4.75;;;;;;;13.16;72.70;101236.59;5052130;28;20028;-67
2022/10/26 01:16:29;;;;;;;10.05;5.05;;;;;;;13.14;73.06;101238.81;5042013;28;20026;-67
2022/10/26 01:18:56;;;;;;;7.32;5.22;;;;;;;13.15;72.90;101234.06;5030627;28;20111;-68
2022/10/26 01:21:48;;;;;;;9.02;4.70;;;;;;;13.18;72.76;101236.34;5039150;28;20028;-67
2022/10/26 01:24:47;;;;;;;9.23;5.73;;;;;;;13.15;73.13;101225.72;5064055;28;20035;-68
2022/10/26 01:27:35;;;;;;;8.95;5.07;;;;;;;13.16;73.17;101219.03;5068874;28;20028;-68
2022/10/26 01:30:32;;;;;;;6.80;5.03;;;;;;;13.19;72.80;101218.50;5046649;28;20041;-69
2022/10/26 01:33:28;;;;;;;11.60;5.70;;;;;;;13.17;73.16;101218.78;5042095;28;20408;-67
2022/10/26 01:36:09;;;;;;;8.38;5.10;;;;;;;13.16;72.91;101208.72;5032400;28;20041;-67
2022/10/26 01:38:46;;;;;;;9.73;5.20;;;;;;;13.16;73.05;101207.88;5047264;28;20025;-68
2022/10/26 01:41:43;;;;;;;8.13;5.80;;;;;;;13.19;72.77;101208.19;5051455;28;20035;-67
2022/10/26 01:44:17;;;;;;;8.18;5.63;;;;;;;13.18;72.77;101206.53;5061451;28;20032;-68
2022/10/26 01:46:45;;;;;;;8.45;5.72;;;;;;;13.16;73.17;101213.44;5048601;28;20029;-66
2022/10/26 01:49:14;;;;;;;9.35;5.45;;;;;;;13.17;73.08;101209.59;5031875;28;20037;-66
2022/10/26 01:51:42;;;;;;;8.63;5.50;;;;;;;13.13;72.96;101205.63;5031034;28;20018;-66
2022/10/26 01:54:07;;;;;;;8.85;5.60;;;;;;;13.15;73.10;101203.41;5031388;28;20038;-67
2022/10/26 01:56:40;;;;;;;8.90;6.05;;;;;;;13.16;73.19;101202.31;5046209;28;20473;-68
2022/10/26 01:59:32;;;;;;;9.07;5.35;;;;;;;13.16;72.83;101202.31;5050488;28;20029;-68
2022/10/26 02:02:09;;;;;;;8.95;5.85;;;;;;;13.18;73.05;101205.69;5055491;28;20044;-68
2022/10/26 02:04:59;;;;;;;9.50;5.43;;;;;;;13.17;73.21;101209.59;5064281;28;20086;-68
2022/10/26 02:07:46;;;;;;;8.95;5.43;;;;;;;13.18;72.99;101200.09;5030931;28;20086;-68
2022/10/26 02:10:30;;;;;;;11.07;5.95;;;;;;;13.16;73.27;101196.72;5047142;28;20050;-67
2022/10/26 02:13:17;;;;;;;10.55;5.63;;;;;;;13.12;73.64;101190.81;5050488;28;20033;-67
2022/10/26 02:16:03;;;;;;;11.52;5.43;;;;;;;13.16;73.22;101182.78;5049911;28;20065;-67
2022/10/26 02:18:34;;;;;;;8.25;5.20;;;;;;;13.13;73.50;101181.38;5070495;28;20119;-67
2022/10/26 02:21:08;;;;;;;8.65;5.10;;;;;;;13.15;73.29;101183.91;5070495;28;20039;-67
2022/10/26 02:23:37;;;;;;;10.70;5.00;;;;;;;13.16;72.94;101183.63;5050670;28;20037;-68
2022/10/26 02:26:08;;;;;;;8.88;5.28;;;;;;;13.19;73.30;101179.47;5050870;28;20033;-67
2022/10/26 02:28:37;;;;;;;11.98;4.88;;;;;;;13.15;73.25;101183.91;5049329;28;20060;-68
2022/10/26 02:31:05;;;;;;;8.10;4.75;;;;;;;13.15;73.00;101179.16;5033704;28;20032;-67
2022/10/26 02:33:35;;;;;;;9.15;4.70;;;;;;;13.17;73.05;101176.97;5050834;28;20469;-67
2022/10/26 02:36:06;;;;;;;7.18;4.53;;;;;;;13.16;73.52;101178.06;5071236;28;20082;-67
2022/10/26 02:38:33;;;;;;;8.52;4.40;;;;;;;13.13;73.33;101170.25;5035369;28;20057;-67
2022/10/26 02:41:00;;;;;;;10.65;4.90;;;;;;;13.15;73.28;101170.81;5034147;28;20045;-67
2022/10/26 02:43:28;;;;;;;10.43;4.53;;;;;;;13.17;73.33;101176.13;5035260;28;20465;-67
2022/10/26 02:46:03;;;;;;;9.77;4.80;;;;;;;13.16;73.05;101163.28;5038615;28;20033;-67
2022/10/26 02:48:28;;;;;;;8.95;4.40;;;;;;;13.13;73.29;101163.81;5057671;28;20036;-69
2022/10/26 02:51:03;;;;;;;8.13;4.57;;;;;;;13.16;72.91;101161.31;5038621;28;21218;-67
2022/10/26 02:53:40;;;;;;;8.07;4.65;;;;;;;13.13;73.39;101169.41;5073419;28;20131;-68
2022/10/26 02:56:20;;;;;;;9.40;4.95;;;;;;;13.13;72.99;101167.44;5073926;28;20036;-68
2022/10/26 02:58:51;;;;;;;7.00;4.45;;;;;;;13.12;73.33;101168.53;5052791;28;20039;-68
2022/10/26 03:01:16;;;;;;;11.00;4.40;;;;;;;13.13;73.07;101161.88;5053902;28;20037;-69
2022/10/26 03:03:42;;;;;;;12.45;4.32;;;;;;;13.13;73.32;101158.25;5034509;28;20439;-68
2022/10/26 03:06:07;;;;;;;8.60;4.50;;;;;;;13.14;73.29;101165.50;5035085;28;20044;-68
2022/10/26 03:08:32;;;;;;;8.70;4.28;;;;;;;13.13;73.47;101163.81;5073579;28;20107;-68
2022/10/26 03:10:57;;;;;;;8.13;4.43;;;;;;;13.12;73.25;101157.38;5063278;28;20032;-69
2022/10/26 03:13:23;;;;;;;9.30;3.97;;;;;;;13.10;73.50;101154.03;5054667;28;20099;-68
2022/10/26 03:15:48;;;;;;;6.63;3.85;;;;;;;13.10;73.19;101153.19;5048995;28;20036;-68
2022/10/26 03:18:13;;;;;;;8.82;4.22;;;;;;;13.10;73.55;101154.03;5048309;28;20511;-68
2022/10/26 03:20:39;;;;;;;7.65;3.80;;;;;;;13.12;73.49;101159.34;5059928;28;20083;-68
2022/10/26 03:23:04;;;;;;;8.05;4.40;;;;;;;13.11;73.61;101152.94;5053780;28;20384;-68
2022/10/26 03:25:29;;;;;;;10.23;4.22;;;;;;;13.10;73.16;101154.03;5053244;28;20813;-68
2022/10/26 03:27:59;;;;;;;6.88;4.50;;;;;;;13.09;73.72;101154.31;5051621;28;20056;-68
2022/10/26 03:30:25;;;;;;;7.78;4.18;;;;;;;13.08;73.36;101150.66;5033100;28;20477;-68
2022/10/26 03:32:50;;;;;;;8.63;3.92;;;;;;;13.09;73.50;101157.09;5034411;28;20049;-67
2022/10/26 03:35:18;;;;;;;6.90;3.90;;;;;;;13.10;73.56;101150.41;5054900;28;20155;-68
2022/10/26 03:37:44;;;;;;;8.68;4.03;;;;;;;13.06;73.75;101146.47;5033371;28;20381;-68
2022/10/26 03:40:10;;;;;;;8.32;3.65;;;;;;;13.06;73.89;101146.47;5034275;28;20026;-68
2022/10/26 03:42:36;;;;;;;8.63;3.85;;;;;;;13.07;73.83;101145.34;5033746;28;20041;-68
2022/10/26 03:45:01;;;;;;;7.47;3.78;;;;;;;13.07;74.00;101143.41;5033397;28;20116;-68
2022/10/26 03:47:27;;;;;;;7.32;3.70;;;;;;;13.05;73.57;101144.75;5034331;28;20176;-68
2022/10/26 03:49:52;;;;;;;12.55;4.10;;;;;;;13.08;73.56;101145.09;5067571;28;20056;-68
2022/10/26 03:52:17;;;;;;;7.35;4.15;;;;;;;13.06;73.95;101147.31;5071719;28;20050;-68
2022/10/26 03:54:43;;;;;;;7.72;3.17;;;;;;;13.07;73.53;101134.22;5042569;28;20087;-68
2022/10/26 03:57:08;;;;;;;6.05;3.88;;;;;;;13.07;73.64;101143.41;5033672;28;20477;-68
2022/10/26 03:59:33;;;;;;;10.25;3.72;;;;;;;13.06;74.07;101138.94;5033223;28;20519;-68
2022/10/26 04:01:58;;;;;;;10.20;3.75;;;;;;;13.09;73.72;101134.81;5036695;28;20025;-68
2022/10/26 04:04:24;;;;;;;10.13;3.72;;;;;;;13.07;73.81;101140.63;5062540;28;20040;-68
2022/10/26 04:06:49;;;;;;;7.28;3.70;;;;;;;13.08;73.79;101139.50;5063126;28;20028;-68
2022/10/26 04:09:15;;;;;;;7.63;3.47;;;;;;;13.09;73.78;101143.16;5053498;28;20092;-68
2022/10/26 04:11:43;;;;;;;7.60;3.20;;;;;;;13.08;74.18;101144.25;5053396;28;20384;-68
2022/10/26 04:14:08;;;;;;;7.95;3.55;;;;;;;13.10;74.01;101148.47;5053512;28;20099;-68
2022/10/26 04:16:33;;;;;;;5.35;3.20;;;;;;;13.08;73.79;101145.09;5058134;28;20481;-68
2022/10/26 04:19:02;;;;;;;10.68;3.65;;;;;;;13.10;74.17;101142.06;5052299;28;20029;-68
2022/10/26 04:21:27;;;;;;;8.75;3.17;;;;;;;13.09;73.88;101141.22;5051467;28;20095;-68
2022/10/26 04:23:52;;;;;;;10.52;3.42;;;;;;;13.10;74.15;101136.47;5059926;28;20127;-68
2022/10/26 04:26:17;;;;;;;10.45;3.40;;;;;;;13.12;74.20;101151.81;5050548;28;20030;-68
2022/10/26 04:28:43;;;;;;;7.63;3.47;;;;;;;13.13;74.35;101138.75;5032610;28;20022;-69
2022/10/26 04:31:08;;;;;;;5.38;3.45;;;;;;;13.16;74.15;101135.41;5034011;28;20039;-68
2022/10/26 04:33:33;;;;;;;8.43;3.47;;;;;;;13.15;73.95;101139.31;5031072;28;20115;-69
2022/10/26 04:36:00;;;;;;;7.32;3.30;;;;;;;13.17;73.99;101134.31;5033394;28;20044;-68
2022/10/26 04:38:25;;;;;;;8.50;3.20;;;;;;;13.17;74.29;101135.16;5044221;28;20036;-68
2022/10/26 04:40:50;;;;;;;5.85;3.20;;;;;;;13.17;74.25;101135.16;5069082;28;20031;-68
2022/10/26 04:43:16;;;;;;;6.38;3.40;;;;;;;13.17;74.19;101126.81;5055722;28;20024;-68
2022/10/26 04:45:47;;;;;;;7.90;3.22;;;;;;;13.19;74.17;101129.31;5073091;28;20028;-68
2022/10/26 04:48:16;;;;;;;6.78;3.17;;;;;;;13.19;74.42;101135.72;5063796;28;20036;-69
2022/10/26 04:50:41;;;;;;;7.40;2.90;;;;;;;13.16;74.20;101133.47;5050487;28;20032;-68
2022/10/26 04:53:07;;;;;;;7.75;2.92;;;;;;;13.18;74.43;101136.84;5052819;28;20120;-69
2022/10/26 04:55:33;;;;;;;6.93;3.20;;;;;;;13.20;74.28;101136.56;5051897;28;20033;-69
2022/10/26 04:57:58;;;;;;;8.30;2.65;;;;;;;13.18;74.72;101138.78;5054209;28;20131;-69
2022/10/26 05:00:24;;;;;;;11.00;3.38;;;;;;;13.23;74.31;101144.44;5036068;28;20136;-69
2022/10/26 05:03:00;;;;;;;6.55;3.35;;;;;;;13.21;74.50;101139.09;5052426;28;20037;-68
2022/10/26 05:05:25;;;;;;;9.40;3.65;;;;;;;13.23;74.62;101141.66;5043161;28;20025;-68
2022/10/26 05:07:57;;;;;;;7.47;3.33;;;;;;;13.24;74.50;101146.09;5058769;28;20047;-68
2022/10/26 05:10:26;;;;;;;6.57;3.00;;;;;;;13.27;74.65;101148.38;5059887;28;20031;-69
2022/10/26 05:12:52;;;;;;;6.28;3.25;;;;;;;13.27;74.37;101149.22;5062678;28;20029;-68
2022/10/26 05:15:21;;;;;;;6.95;3.10;;;;;;;13.24;74.96;101144.19;5055721;28;20033;-68
2022/10/26 05:17:46;;;;;;;7.63;3.17;;;;;;;13.27;74.53;101153.94;5064665;28;20119;-68
2022/10/26 05:20:15;;;;;;;7.90;3.10;;;;;;;13.27;74.87;101146.44;5050834;28;20108;-68
2022/10/26 05:22:40;;;;;;;6.30;3.05;;;;;;;13.26;74.83;101143.91;5046034;28;20032;-69
2022/10/26 05:25:06;;;;;;;4.63;2.70;;;;;;;13.25;74.83;101150.59;5050186;28;20029;-69
2022/10/26 05:27:31;;;;;;;6.18;2.67;;;;;;;13.26;74.89;101152.28;5039136;28;20397;-69
2022/10/26 05:30:03;;;;;;;4.88;2.80;;;;;;;13.27;74.80;101151.16;5033440;28;20703;-69
2022/10/26 05:32:28;;;;;;;8.65;3.20;;;;;;;13.26;74.64;101150.31;5045838;28;20046;-69
2022/10/26 05:34:54;;;;;;;5.65;3.33;;;;;;;13.27;74.98;101156.75;5038521;28;20401;-68
2022/10/26 05:37:19;;;;;;;9.25;3.30;;;;;;;13.26;75.10;101158.69;5032272;28;20515;-68
2022/10/26 05:39:44;;;;;;;5.10;3.17;;;;;;;13.27;75.14;101151.16;5047672;28;20758;-68
2022/10/26 05:42:10;;;;;;;5.35;2.90;;;;;;;13.29;74.57;101156.50;5046535;28;20025;-68
2022/10/26 05:44:35;;;;;;;10.75;3.28;;;;;;;13.30;74.55;101149.81;5049734;28;20106;-69
2022/10/26 05:47:00;;;;;;;8.48;3.47;;;;;;;13.30;74.54;101147.03;5059691;28;20121;-67
2022/10/26 05:49:25;;;;;;;8.70;3.08;;;;;;;13.31;74.37;101155.09;5031770;28;20033;-67
2022/10/26 05:51:51;;;;;;;6.25;2.95;;;;;;;13.29;74.80;101151.75;5039447;28;20413;-67
2022/10/26 05:54:16;;;;;;;6.53;3.03;;;;;;;13.30;74.78;101158.16;5045217;28;20147;-68
2022/10/26 05:56:41;;;;;;;7.93;3.13;;;;;;;13.29;74.79;101168.47;5047123;28;20460;-69
2022/10/26 05:59:12;;;;;;;6.43;3.50;;;;;;;13.28;74.70;101164.00;5047004;28;20032;-68
2022/10/26 06:02:11;;;;;;;9.88;3.28;;;;;;;13.33;74.89;101166.84;5047861;28;20039;-66
2022/10/26 06:04:42;;;;;;;4.95;3.20;;;;;;;13.29;74.79;101165.69;5046666;28;20854;-66
2022/10/26 06:07:13;;;;;;;7.82;3.60;;;;;;;13.31;74.77;101166.25;5028360;28;20029;-66
2022/10/26 06:09:42;;;;;;;6.85;3.63;;;;;;;13.28;75.08;101172.34;5028303;28;20040;-66
2022/10/26 06:12:09;;;;;;;6.72;3.17;;;;;;;13.28;75.23;101180.72;5027656;28;20037;-66
2022/10/26 06:14:35;;;;;;;5.90;2.95;;;;;;;13.28;75.00;101177.94;5028997;28;20059;-66
2022/10/26 06:17:21;;;;;;;6.82;3.05;;;;;;;13.31;74.87;101179.34;5048077;28;20064;-67
2022/10/26 06:20:31;;;;;;;7.22;3.25;;;;;;;13.35;74.92;101184.13;5058552;28;20040;-68
2022/10/26 06:23:47;;;;;;;7.32;2.95;;;;;;;13.38;75.04;101180.00;5028825;28;20030;-68
2022/10/26 06:26:30;;;;;;;5.90;3.22;;;;;;;13.33;74.89;101171.59;4987113;28;20041;-76
2022/10/26 06:29:20;;;;;;;8.30;3.17;;;;;;;13.30;75.00;101172.94;5054000;28;20124;-71
2022/10/26 06:31:46;;;;;;;9.63;3.20;;;;;;;13.33;74.62;101180.78;5051114;28;20468;-70
2022/10/26 06:34:17;;;;;;;7.97;3.28;;;;;;;13.28;75.12;101177.94;5053729;28;20049;-70
2022/10/26 06:36:43;;;;;;;5.88;3.45;;;;;;;13.29;75.21;101173.22;5054274;28;20033;-69
2022/10/26 06:39:11;;;;;;;7.38;3.33;;;;;;;13.24;75.07;101171.19;5055780;28;20051;-70
2022/10/26 06:41:37;;;;;;;6.30;3.40;;;;;;;13.24;75.53;101162.84;5055984;28;20055;-70
2022/10/26 06:44:03;;;;;;;6.22;3.60;;;;;;;13.27;75.39;101156.75;5054005;28;20086;-69
2022/10/26 06:46:40;;;;;;;7.30;3.10;;;;;;;13.28;75.36;101158.41;5053227;28;20490;-69
2022/10/26 06:49:26;;;;;;;6.18;3.50;;;;;;;13.29;75.19;101160.13;5054261;28;20029;-68
2022/10/26 06:51:58;;;;;;;9.05;3.70;;;;;;;13.31;75.04;101162.63;5042726;28;20112;-67
2022/10/26 06:54:50;;;;;;;6.68;3.60;;;;;;;13.34;75.49;101164.91;5041533;28;20025;-69
2022/10/26 06:57:20;;;;;;;7.80;3.53;;;;;;;13.31;75.99;101159.84;5048563;28;20112;-69
2022/10/26 06:59:55;;;;;;;5.93;3.00;;;;;;;13.33;75.13;101169.63;5038370;28;20367;-69
2022/10/26 07:02:20;;;;;;;8.65;3.60;;;;;;;13.34;75.30;101171.31;5046877;28;20048;-68
2022/10/26 07:04:46;;;;;;;10.95;3.80;;;;;;;13.33;75.73;101166.84;5048755;28;20037;-68
2022/10/26 07:07:18;;;;;;;7.30;3.65;;;;;;;13.36;75.63;101169.13;5048015;28;20036;-68
2022/10/26 07:09:47;;;;;;;6.82;3.42;;;;;;;13.37;75.71;101175.53;5048056;28;20662;-74
2022/10/26 07:12:12;;;;;;;7.80;3.88;;;;;;;13.37;75.47;101186.69;5051125;28;20029;-69
2022/10/26 07:14:38;;;;;;;5.60;3.70;;;;;;;13.34;75.49;101188.03;5043780;28;20033;-67
2022/10/26 07:17:04;;;;;;;6.43;3.30;;;;;;;13.34;75.87;101188.03;5053064;28;20071;-68
2022/10/26 07:19:32;;;;;;;8.35;3.45;;;;;;;13.32;75.80;101187.44;5053226;28;20389;-68
2022/10/26 07:22:00;;;;;;;8.43;3.63;;;;;;;13.32;76.19;101195.81;5052740;28;20025;-67
2022/10/26 07:24:28;;;;;;;6.55;3.67;;;;;;;13.33;75.77;101197.50;5066369;28;20463;-68
2022/10/26 07:26:54;;;;;;;8.95;4.60;;;;;;;13.35;75.62;101200.03;5072405;28;20380;-68
2022/10/26 07:29:20;;;;;;;6.15;3.88;;;;;;;13.35;75.93;101212.03;5071697;28;20016;-67
2022/10/26 07:31:46;;;;;;;8.82;3.88;;;;;;;13.38;75.93;101205.94;5052960;28;20048;-68
2022/10/26 07:34:11;;;;;;;7.78;3.90;;;;;;;13.39;75.80;101210.38;5051752;28;20062;-69
2022/10/26 07:36:36;;;;;;;10.38;4.57;;;;;;;13.39;75.89;101207.59;5051760;28;20043;-68
2022/10/26 07:39:05;;;;;;;6.43;3.78;;;;;;;13.43;75.80;101213.50;5045014;28;20033;-68
2022/10/26 07:41:31;;;;;;;9.45;3.33;;;;;;;13.45;76.00;101206.56;5047109;28;20041;-68
2022/10/26 07:43:56;;;;;;;11.52;3.50;;;;;;;13.48;76.48;101219.16;5045863;28;20034;-73
2022/10/26 07:46:22;;;;;;;5.95;3.22;;;;;;;13.51;76.39;101218.59;5048673;28;20029;-70
2022/10/26 07:48:47;;;;;;;7.22;3.35;;;;;;;13.53;76.16;101232.28;5050691;28;20021;-74
2022/10/26 07:51:13;;;;;;;6.63;3.35;;;;;;;13.56;76.63;101252.13;5049353;28;20473;-70
2022/10/26 07:53:45;;;;;;;9.13;3.50;;;;;;;13.58;76.11;101247.13;5038612;28;20028;-71
2022/10/26 07:56:11;;;;;;;7.50;3.28;;;;;;;13.61;76.38;101241.00;5045727;28;20045;-69
2022/10/26 07:58:36;;;;;;;6.45;3.08;;;;;;;13.65;76.77;101241.34;5045113;28;20564;-70
2022/10/26 08:01:13;;;;;;;7.63;3.28;;;;;;;13.69;77.04;101240.53;5039532;28;20550;-71
2022/10/26 08:03:39;;;;;;;5.75;3.00;;;;;;;13.75;76.69;101242.28;5046417;28;20028;-70
2022/10/26 08:06:05;;;;;;;8.07;3.30;;;;;;;13.82;76.69;101253.19;5038210;28;20469;-70
2022/10/26 08:08:33;;;;;;;7.05;2.67;;;;;;;13.88;76.95;101254.94;5039919;28;20025;-70
2022/10/26 08:11:01;;;;;;;6.35;2.92;;;;;;;13.97;76.83;101263.66;5037326;28;20032;-71
2022/10/26 08:13:26;;;;;;;8.95;2.85;;;;;;;14.05;76.82;101257.59;5055247;28;20058;-69
2022/10/26 08:15:59;;;;;;;6.60;2.75;;;;;;;14.16;76.67;101256.56;5037159;28;20128;-71
2022/10/26 08:18:28;;;;;;;7.63;3.20;;;;;;;14.27;76.73;101260.28;5050951;28;20040;-69
2022/10/26 08:20:54;;;;;;;7.47;3.13;;;;;;;14.33;76.29;101256.41;5046860;28;20052;-69
2022/10/26 08:23:20;;;;;;;5.03;2.80;;;;;;;14.37;76.21;101257.53;5036036;28;20029;-70
2022/10/26 08:25:46;;;;;;;6.25;2.80;;;;;;;14.38;76.15;101270.44;5044134;28;20535;-73
2022/10/26 08:28:11;;;;;;;7.53;3.03;;;;;;;14.39;76.27;101266.50;5043575;28;20431;-73
2022/10/26 08:30:37;;;;;;;11.18;3.03;;;;;;;14.43;76.11;101275.19;5036196;28;20553;-72
2022/10/26 08:33:04;;;;;;;7.72;3.05;;;;;;;14.42;76.33;101267.91;5043355;28;20056;-70
2022/10/26 08:35:31;;;;;;;9.00;3.00;;;;;;;14.47;76.55;101274.38;5049300;28;20032;-72
2022/10/26 08:37:56;;;;;;;5.78;2.45;;;;;;;14.53;76.51;101272.47;5042132;28;20033;-69
2022/10/26 08:40:25;;;;;;;7.60;2.90;;;;;;;14.60;76.57;101273.09;5048340;28;20500;-70
2022/10/26 08:42:56;;;;;;;5.55;2.70;;;;;;;14.73;76.50;101283.78;5042143;28;20110;-71
2022/10/26 08:45:28;;;;;;;6.35;2.55;;;;;;;14.86;76.37;101282.47;5046985;28;20021;-70
2022/10/26 08:47:59;;;;;;;9.52;2.83;;;;;;;14.98;76.06;101280.31;5046690;28;20033;-69
2022/10/26 08:50:36;;;;;;;7.00;2.83;;;;;;;15.06;75.85;101267.75;5051241;28;20032;-67
2022/10/26 08:53:04;;;;;;;4.00;2.58;;;;;;;15.18;76.09;101273.94;5044234;28;20021;-70
2022/10/26 08:55:39;;;;;;;6.00;2.55;;;;;;;15.22;75.75;101254.69;5049054;28;20045;-68
2022/10/26 08:58:11;;;;;;;7.90;2.60;;;;;;;15.27;75.69;101254.69;5048079;28;20036;-67
2022/10/26 09:00:37;;;;;;;7.72;2.75;;;;;;;15.30;75.76;101242.94;5037870;28;20114;-69
2022/10/26 09:03:12;;;;;;;7.15;2.88;;;;;;;15.33;75.38;101248.00;5045953;28;20029;-70
2022/10/26 09:05:53;;;;;;;6.93;2.80;;;;;;;15.34;75.73;101249.69;5035902;28;20104;-64
2022/10/26 09:08:30;;;;;;;7.80;2.80;;;;;;;15.38;75.83;101264.78;5044176;28;20600;-66
2022/10/26 09:11:27;;;;;;;3.75;2.40;;;;;;;15.44;76.00;101271.22;5037068;28;20468;-66
2022/10/26 09:14:15;;;;;;;5.93;2.53;;;;;;;15.46;75.49;101283.84;5030574;28;20041;-67
2022/10/26 09:17:13;;;;;;;8.57;3.33;;;;;;;15.55;75.51;101286.09;5047134;28;20111;-66
2022/10/26 09:20:16;;;;;;;4.82;2.50;;;;;;;15.64;75.23;101295.63;5046726;28;20067;-65
2022/10/26 09:22:54;;;;;;;5.75;2.45;;;;;;;15.80;75.53;101304.91;5045835;28;20029;-69
2022/10/26 09:25:21;;;;;;;7.07;2.80;;;;;;;15.92;75.14;101316.72;5044731;28;20037;-64
2022/10/26 09:27:55;;;;;;;5.22;2.75;;;;;;;16.05;75.05;101312.53;5042587;28;20078;-69
2022/10/26 09:30:20;;;;;;;5.13;2.42;;;;;;;16.15;74.80;101312.50;5040948;28;20024;-67
2022/10/26 09:32:48;;;;;;;4.75;2.60;;;;;;;16.26;74.48;101317.00;5045422;28;20461;-64
2022/10/26 09:35:14;;;;;;;6.85;2.25;;;;;;;16.36;74.07;101321.78;5044963;28;20037;-69
2022/10/26 09:37:50;;;;;;;6.13;2.50;;;;;;;16.45;73.62;101334.94;5037224;28;20044;-70
2022/10/26 09:40:30;;;;;;;6.38;2.92;;;;;;;16.51;73.62;101340.56;5041144;28;20032;-68
2022/10/26 09:43:07;;;;;;;8.90;2.38;;;;;;;16.61;73.20;101340.53;5038017;28;20029;-69
2022/10/26 09:45:36;;;;;;;7.65;2.78;;;;;;;16.62;72.62;101334.66;5046307;28;20078;-68
2022/10/26 09:48:12;;;;;;;7.03;2.70;;;;;;;16.65;72.58;101344.44;5057173;28;20078;-67
2022/10/26 09:50:43;;;;;;;6.03;2.75;;;;;;;16.62;72.64;101326.25;5039237;28;20033;-71
2022/10/26 09:53:08;;;;;;;8.00;2.72;;;;;;;16.61;72.62;101340.53;5043497;28;20082;-70
2022/10/26 09:56:01;;;;;;;6.03;2.70;;;;;;;16.60;72.95;101341.66;5038957;28;20028;-72
2022/10/26 09:58:30;;;;;;;6.10;3.17;;;;;;;16.65;72.94;101342.47;5033252;28;20116;-72
2022/10/26 10:00:56;;;;;;;7.35;2.92;;;;;;;16.71;72.83;101359.31;5033725;28;20040;-70
2022/10/26 10:03:26;;;;;;;7.63;3.00;;;;;;;16.73;73.24;101349.50;5040525;28;20029;-71
2022/10/26 10:05:52;;;;;;;7.45;2.85;;;;;;;16.75;72.98;101358.50;5035001;28;20033;-71
2022/10/26 10:08:20;;;;;;;5.22;2.60;;;;;;;16.81;73.25;101360.16;5039236;28;20032;-71
2022/10/26 10:11:08;;;;;;;7.55;3.20;;;;;;;16.89;73.51;101362.38;5041859;28;20365;-69
2022/10/26 10:13:42;;;;;;;6.43;2.83;;;;;;;16.97;73.27;101366.56;5043585;28;20048;-66
2022/10/26 10:16:22;;;;;;;6.07;2.30;;;;;;;17.04;73.30;101378.34;5041335;28;20120;-69
2022/10/26 10:18:58;;;;;;;9.35;2.50;;;;;;;17.12;73.25;101379.72;5039501;28;20484;-63
2022/10/26 10:21:39;;;;;;;9.65;2.70;;;;;;;17.15;73.01;101379.16;5046010;28;20075;-63
2022/10/26 10:24:32;;;;;;;7.90;2.60;;;;;;;17.20;73.25;101393.16;5033233;28;20038;-63
2022/10/26 10:26:57;;;;;;;;;;;;;;;17.20;73.33;101390.38;5041928;28;20031;-72
2022/10/26 10:29:26;;;;;;;6.68;2.65;;;;;;;17.28;72.63;101400.16;5042135;28;19940;-71
2022/10/26 10:31:57;;;;;;;4.88;2.53;;;;;;;17.35;72.10;101401.53;5034265;28;20026;-72
2022/10/26 10:34:22;;;;;;;4.68;2.40;;;;;;;17.34;72.07;101404.66;5038127;28;20075;-70
2022/10/26 10:36:49;;;;;;;11.10;2.95;;;;;;;17.41;72.39;101410.81;5042434;28;20029;-72
2022/10/26 10:39:36;;;;;;;7.40;2.78;;;;;;;17.43;72.60;101414.97;5043939;28;20110;-72
2022/10/26 10:42:03;;;;;;;7.60;2.63;;;;;;;17.51;72.75;101409.91;5031049;28;20029;-71
2022/10/26 10:44:31;;;;;;;11.68;2.80;;;;;;;17.51;71.98;101426.75;5033337;28;20083;-72
2022/10/26 10:47:05;;;;;;;8.25;2.63;;;;;;;17.50;72.55;101425.91;5039277;28;20480;-71
2022/10/26 10:49:31;;;;;;;5.45;2.65;;;;;;;17.51;72.12;101432.38;5031261;28;20528;-71
2022/10/26 10:51:57;;;;;;;5.30;2.40;;;;;;;17.53;72.18;101427.31;5047894;28;20021;-70
2022/10/26 10:54:36;;;;;;;6.07;2.60;;;;;;;17.57;72.41;101437.69;5041394;28;20106;-71
2022/10/26 10:57:19;;;;;;;5.20;2.58;;;;;;;17.56;71.99;101430.38;5029498;28;20025;-72
2022/10/26 11:00:08;;;;;;;9.57;2.80;;;;;;;17.57;72.16;101450.88;5048703;28;20059;-71
2022/10/26 11:02:45;;;;;;;6.22;2.65;;;;;;;17.57;72.08;101445.28;5043303;28;20091;-73
2022/10/26 11:05:28;;;;;;;7.13;2.50;;;;;;;17.57;72.34;101448.09;5040937;28;20056;-70
2022/10/26 11:08:07;;;;;;;6.60;2.10;;;;;;;17.61;72.28;101450.03;5049188;28;20050;-65
2022/10/26 11:10:43;;;;;;;4.85;2.20;;;;;;;17.63;72.27;101453.38;5042429;28;20358;-69
2022/10/26 11:13:25;;;;;;;6.35;2.30;;;;;;;17.70;72.45;101455.88;5053902;28;20108;-69
2022/10/26 11:15:58;;;;;;;7.90;2.38;;;;;;;17.69;73.00;101454.22;5042454;28;20037;-69
2022/10/26 11:18:42;;;;;;;7.07;2.22;;;;;;;17.71;72.71;101462.34;5034007;28;20056;-68
2022/10/26 11:21:29;;;;;;;5.80;2.15;;;;;;;17.72;72.50;101472.44;5050483;28;20210;-69
2022/10/26 11:24:12;;;;;;;6.05;2.22;;;;;;;17.77;72.54;101475.28;5033936;28;20056;-69
2022/10/26 11:26:43;;;;;;;4.00;2.08;;;;;;;17.74;72.60;101478.63;5070332;28;20074;-68
2022/10/26 11:29:22;;;;;;;5.75;2.28;;;;;;;17.74;72.49;101470.19;5058327;28;20029;-68
2022/10/26 11:32:20;;;;;;;6.45;2.13;;;;;;;17.70;72.99;101474.69;5036099;28;20073;-68
2022/10/26 11:35:07;;;;;;;4.25;1.95;;;;;;;17.74;72.54;101473.00;5031723;28;20137;-69
2022/10/26 11:37:45;;;;;;;4.80;2.03;;;;;;;17.80;72.54;101480.28;5037161;28;20037;-68
2022/10/26 11:40:51;;;;;;;7.90;2.30;;;;;;;17.82;72.49;101476.09;5056576;28;20467;-68
2022/10/26 11:43:46;;;;;;;4.68;1.98;;;;;;;17.84;72.48;101470.16;5046836;28;20167;-69
2022/10/26 11:46:14;;;;;;;5.13;1.90;;;;;;;17.85;72.79;101469.91;5041127;28;20037;-69